Time;durP1;ratioP1;P1;durP2;ratioP2;P2;SDS_P1;SDS_P2;PMS_P1;PMS_P2;Temp;Humidity;BMP_temperature;BMP_pressure;BME280_temperature;BME280_humidity;BME280_pressure;Samples;Min_cycle;Max_cycle;Signal;HPM_P1;HPM_P2
2021/12/11 09:49:14;;;;;;;18.77;13.48;;;;;;;-0.08;78.57;98570.31;6213560;23;20031;-85
2021/12/11 09:51:45;;;;;;;22.42;14.70;;;;;;;-0.03;77.76;98567.13;6188509;23;20013;-86
2021/12/11 09:54:18;;;;;;;19.13;13.55;;;;;;;0.07;77.97;98577.31;6188832;23;20347;-85
2021/12/11 09:56:49;;;;;;;16.52;13.35;;;;;;;0.12;78.52;98582.81;6190831;23;20013;-84
2021/12/11 09:59:19;;;;;;;20.30;14.90;;;;;;;0.16;78.55;98587.47;6188744;23;20004;-86
2021/12/11 10:01:50;;;;;;;18.10;14.88;;;;;;;0.04;77.76;98557.53;6188553;23;20035;-84
2021/12/11 10:04:28;;;;;;;20.60;16.27;;;;;;;0.24;78.65;98584.72;6188342;23;20028;-83
2021/12/11 10:09:28;;;;;;;26.58;16.60;;;;;;;0.27;78.16;98594.03;6215140;23;20012;-82
2021/12/11 10:12:02;;;;;;;22.08;15.25;;;;;;;0.27;78.43;98594.03;6188777;23;20008;-83
2021/12/11 10:14:33;;;;;;;21.17;16.15;;;;;;;0.31;78.23;98597.91;6188313;23;20015;-84
2021/12/11 10:17:01;;;;;;;23.13;15.95;;;;;;;0.30;78.18;98596.28;6188582;23;20008;-83
2021/12/11 10:19:29;;;;;;;22.35;16.58;;;;;;;0.37;78.13;98597.16;6163855;23;20010;-84
2021/12/11 10:22:04;;;;;;;21.83;16.40;;;;;;;0.37;78.47;98591.91;6188490;23;20004;-83
2021/12/11 10:24:32;;;;;;;24.17;17.05;;;;;;;0.34;78.67;98602.78;6215414;23;20004;-83
2021/12/11 10:27:03;;;;;;;29.67;18.70;;;;;;;0.43;78.22;98610.34;6190164;23;20114;-86
2021/12/11 10:29:28;;;;;;;44.00;24.52;;;;;;;0.45;78.61;98612.75;6190188;23;20087;-84
2021/12/11 10:32:06;;;;;;;38.78;22.77;;;;;;;0.45;78.71;98607.50;6190738;23;20032;-84
2021/12/11 10:34:34;;;;;;;39.60;23.98;;;;;;;0.46;78.33;98612.56;6189491;23;20020;-85
2021/12/11 10:37:11;;;;;;;44.25;24.63;;;;;;;0.54;77.92;98620.31;6193130;23;20364;-83
2021/12/11 10:39:41;;;;;;;39.75;21.88;;;;;;;0.57;78.81;98619.09;6168778;23;20016;-85
2021/12/11 10:42:07;;;;;;;30.83;19.85;;;;;;;0.44;78.07;98604.06;6187169;23;20008;-86
2021/12/11 10:44:37;;;;;;;34.85;21.05;;;;;;;0.63;78.41;98629.66;6187587;23;20456;-84
2021/12/11 10:47:18;;;;;;;27.48;18.23;;;;;;;0.63;77.77;98628.88;6188733;23;20028;-84
2021/12/11 10:49:44;;;;;;;24.40;18.45;;;;;;;0.51;78.12;98607.56;6188377;23;20016;-84
2021/12/11 10:52:18;;;;;;;26.77;18.48;;;;;;;0.69;78.53;98633.34;6186960;23;20023;-84
2021/12/11 10:54:47;;;;;;;29.90;18.20;;;;;;;0.64;78.85;98620.78;6187983;23;20466;-84
2021/12/11 10:57:15;;;;;;;24.27;16.23;;;;;;;0.73;78.54;98629.34;6212608;23;20009;-84
2021/12/11 10:59:43;;;;;;;25.10;18.60;;;;;;;0.75;78.30;98633.41;6216100;23;20000;-86
2021/12/11 11:02:24;;;;;;;29.25;18.40;;;;;;;0.75;78.41;98627.34;6190762;23;20006;-86
2021/12/11 11:05:00;;;;;;;23.08;17.42;;;;;;;0.73;78.26;98632.78;6218390;23;20388;-85
2021/12/11 11:07:27;;;;;;;29.88;19.58;;;;;;;0.65;78.74;98630.31;6218568;23;20011;-86
2021/12/11 11:09:58;;;;;;;31.67;19.70;;;;;;;0.41;78.37;98578.22;6217814;23;20001;-86
2021/12/11 11:12:25;;;;;;;31.83;20.10;;;;;;;0.88;78.60;98653.69;6191036;23;20020;-85
2021/12/11 11:14:53;;;;;;;36.17;21.15;;;;;;;0.92;78.20;98665.44;6191121;23;20012;-84
2021/12/11 11:17:22;;;;;;;30.08;19.15;;;;;;;0.43;78.32;98578.03;6191031;23;20050;-86
2021/12/11 14:33:27;;;;;;;58.65;25.63;;;;;;;1.26;80.45;98907.31;6215157;23;20414;-83
2021/12/11 14:35:53;;;;;;;58.95;24.33;;;;;;;0.86;80.00;98846.66;6187664;23;20008;-83
2021/12/11 14:38:19;;;;;;;57.97;24.17;;;;;;;1.10;80.10;98899.66;6189145;23;20005;-86
2021/12/11 14:40:47;;;;;;;45.72;24.67;;;;;;;1.17;80.26;98915.50;6164911;23;20005;-83
2021/12/11 14:43:15;;;;;;;52.83;24.90;;;;;;;1.15;79.81;98922.75;6188888;23;20009;-84
2021/12/11 14:45:42;;;;;;;52.72;23.95;;;;;;;1.25;79.72;98928.50;6190779;23;20005;-84
2021/12/11 14:48:09;;;;;;;39.78;23.65;;;;;;;1.24;79.84;98940.03;6190123;23;20087;-84
2021/12/11 14:50:46;;;;;;;50.85;25.10;;;;;;;1.12;78.92;98936.25;6190241;23;20005;-83
2021/12/11 14:53:16;;;;;;;46.60;26.20;;;;;;;1.19;79.08;98951.13;6217442;23;20000;-79
2021/12/11 14:55:48;;;;;;;73.90;30.33;;;;;;;1.21;79.74;98959.63;6217780;23;20012;-81
2021/12/11 14:58:14;;;;;;;59.42;27.38;;;;;;;1.20;79.18;98971.13;6192539;23;20009;-83
2021/12/11 15:00:43;;;;;;;47.38;26.27;;;;;;;1.17;79.44;98971.53;6216103;23;20011;-81
2021/12/11 15:03:08;;;;;;;53.83;27.20;;;;;;;1.15;78.82;98977.97;6190113;23;20000;-82
2021/12/11 15:05:41;;;;;;;52.65;28.25;;;;;;;0.94;78.60;98956.91;6214891;23;20083;-81
2021/12/11 15:08:16;;;;;;;39.53;24.50;;;;;;;1.07;79.25;98985.97;6190149;23;20001;-84
2021/12/11 15:10:43;;;;;;;38.45;24.40;;;;;;;1.01;79.21;98981.41;6220469;23;20008;-83
2021/12/11 15:13:09;;;;;;;36.03;23.92;;;;;;;0.98;79.36;98989.69;6192963;23;20039;-82
2021/12/11 15:15:36;;;;;;;37.17;23.27;;;;;;;0.89;79.16;98988.16;6218598;23;20008;-82
2021/12/11 15:18:04;;;;;;;37.88;23.23;;;;;;;0.75;78.63;98974.84;6218682;23;20009;-81
2021/12/11 15:20:37;;;;;;;49.92;21.80;;;;;;;0.93;78.94;99019.13;6193136;23;20004;-82
2021/12/11 15:23:04;;;;;;;30.27;21.15;;;;;;;0.86;78.68;99010.34;6192166;23;20036;-81
2021/12/11 15:25:30;;;;;;;34.25;21.88;;;;;;;0.91;78.64;99023.75;6218509;23;20100;-84
2021/12/11 15:27:57;;;;;;;29.52;19.85;;;;;;;0.88;78.30;99016.22;6192529;23;20009;-82
2021/12/11 15:30:37;;;;;;;34.38;19.90;;;;;;;0.76;78.53;99007.19;6192338;23;20092;-82
2021/12/11 15:33:04;;;;;;;31.15;20.40;;;;;;;0.85;78.34;99034.19;6217818;23;20451;-82
2021/12/11 15:35:39;;;;;;;28.13;20.10;;;;;;;0.82;78.41;99035.38;6216645;23;20024;-82
2021/12/11 15:38:08;;;;;;;37.40;20.85;;;;;;;0.77;79.00;99035.06;6189718;23;20005;-80
2021/12/11 15:40:35;;;;;;;31.38;20.95;;;;;;;0.71;79.06;99025.31;6190034;23;20495;-83
2021/12/11 15:43:03;;;;;;;32.45;20.92;;;;;;;0.74;78.38;99028.38;6217566;23;20005;-79
2021/12/11 15:45:29;;;;;;;34.88;22.05;;;;;;;0.72;78.65;99037.47;6219275;23;20461;-81
2021/12/11 15:47:55;;;;;;;32.30;20.02;;;;;;;0.71;78.70;99023.50;6218134;23;20335;-81
2021/12/11 15:50:29;;;;;;;32.72;19.65;;;;;;;0.66;78.18;99023.22;6217217;23;20008;-81
2021/12/11 15:52:55;;;;;;;34.40;19.25;;;;;;;0.57;78.49;99012.97;6218385;23;19996;-82
2021/12/11 15:55:22;;;;;;;31.63;19.17;;;;;;;0.66;77.98;99038.16;6218678;23;20055;-82
2021/12/11 15:57:52;;;;;;;33.13;19.45;;;;;;;0.65;78.41;99032.13;6191977;23;20439;-83
2021/12/11 16:00:21;;;;;;;33.00;20.15;;;;;;;0.63;78.58;99039.31;6218114;23;20458;-81
2021/12/11 16:02:46;;;;;;;34.95;20.77;;;;;;;0.51;78.01;99008.44;6191929;23;20023;-82
2021/12/11 16:05:13;;;;;;;33.78;18.88;;;;;;;0.53;77.96;99011.72;6191000;23;20435;-82
2021/12/11 16:07:38;;;;;;;28.80;19.52;;;;;;;0.54;78.20;99029.09;6219015;23;20008;-82
2021/12/11 16:10:08;;;;;;;32.50;20.55;;;;;;;0.27;77.82;98987.69;6191664;23;20347;-84
2021/12/11 16:12:34;;;;;;;33.72;21.02;;;;;;;0.54;78.48;99042.25;6191804;23;20469;-81
2021/12/11 16:15:04;;;;;;;28.00;19.05;;;;;;;0.46;78.26;99045.75;6165274;23;20016;-82
2021/12/11 16:17:30;;;;;;;35.72;20.50;;;;;;;0.51;78.25;99047.84;6191103;23;20331;-83
2021/12/11 16:20:00;;;;;;;30.75;19.90;;;;;;;0.48;78.55;99042.97;6192389;23;20016;-81
2021/12/11 16:22:30;;;;;;;28.13;18.98;;;;;;;0.46;78.02;99051.00;6192113;23;19997;-82
2021/12/11 16:25:04;;;;;;;34.75;20.23;;;;;;;0.44;78.12;99046.91;6191076;23;20012;-85
2021/12/11 16:27:30;;;;;;;29.70;20.65;;;;;;;0.38;77.75;99042.38;6216993;23;20008;-82
2021/12/11 16:29:56;;;;;;;33.92;21.75;;;;;;;0.46;77.54;99048.38;6215690;23;20004;-82
2021/12/11 16:32:21;;;;;;;34.28;20.95;;;;;;;0.44;77.72;99054.78;6217025;23;20007;-83
2021/12/11 16:34:47;;;;;;;31.33;18.95;;;;;;;0.41;77.93;99073.53;6164884;23;20020;-82
2021/12/11 16:37:17;;;;;;;34.90;22.60;;;;;;;0.34;77.88;99052.44;6190116;23;20012;-83
2021/12/11 16:39:45;;;;;;;31.98;20.23;;;;;;;0.21;77.91;99054.84;6191892;23;20062;-83
2021/12/11 16:42:48;;;;;;;36.05;22.60;;;;;;;0.33;77.60;99078.88;6217993;23;20051;-82
2021/12/11 16:45:17;;;;;;;30.98;20.60;;;;;;;0.33;78.30;99084.13;6104649;23;20010;-83
2021/12/11 16:47:44;;;;;;;32.65;20.45;;;;;;;0.30;78.01;99092.34;6153889;23;20382;-83
2021/12/11 16:50:12;;;;;;;31.90;21.65;;;;;;;0.27;77.38;99095.31;6194004;23;20066;-83
2021/12/11 16:52:37;;;;;;;40.00;20.60;;;;;;;0.14;77.75;99081.97;6196276;23;20459;-84
2021/12/11 16:55:05;;;;;;;31.73;20.92;;;;;;;0.16;77.51;99093.09;6171624;23;20038;-83
2021/12/11 16:57:31;;;;;;;37.85;22.92;;;;;;;0.23;77.66;99121.09;6220630;23;20011;-83
2021/12/11 16:59:56;;;;;;;37.88;23.30;;;;;;;0.22;78.21;99118.66;6194000;23;20008;-85
2021/12/11 17:02:24;;;;;;;34.35;22.13;;;;;;;0.22;77.31;99118.66;6194652;23;20001;-82
2021/12/11 17:04:50;;;;;;;34.00;22.65;;;;;;;0.12;77.46;99111.03;6219039;23;20009;-83
2021/12/11 17:07:16;;;;;;;31.10;23.10;;;;;;;0.17;77.73;99126.25;6219660;23;20060;-82
2021/12/11 17:09:44;;;;;;;35.47;21.60;;;;;;;0.16;77.64;99122.78;6221639;23;20024;-84
2021/12/11 17:12:17;;;;;;;38.80;22.23;;;;;;;-0.01;76.96;99108.16;6190921;23;20061;-84
2021/12/11 17:14:43;;;;;;;35.33;20.08;;;;;;;0.12;77.28;99120.69;6191866;23;20444;-84
2021/12/11 17:17:09;;;;;;;34.60;21.15;;;;;;;0.12;76.99;99133.81;6215884;23;20004;-83
2021/12/11 17:19:35;;;;;;;33.97;20.65;;;;;;;0.14;77.08;99137.06;6191048;23;20036;-84
2021/12/11 17:22:01;;;;;;;31.48;19.40;;;;;;;0.01;76.95;99127.16;6190565;23;20005;-83
2021/12/11 17:24:30;;;;;;;34.40;20.27;;;;;;;0.14;77.85;99145.78;6189673;23;20083;-84
2021/12/11 17:26:56;;;;;;;36.65;21.65;;;;;;;0.13;77.11;99143.34;6189104;23;20008;-84
2021/12/11 17:29:24;;;;;;;33.53;21.10;;;;;;;0.26;77.14;99161.94;6216297;23;20015;-83
2021/12/11 17:31:51;;;;;;;33.90;19.77;;;;;;;0.16;77.50;99145.59;6189710;23;20354;-82
2021/12/11 17:34:18;;;;;;;34.22;20.23;;;;;;;0.33;77.31;99162.88;6216292;23;20347;-84
2021/12/11 17:36:44;;;;;;;36.25;20.30;;;;;;;0.35;77.41;99161.69;6215429;23;20005;-85
2021/12/11 17:39:11;;;;;;;32.85;19.88;;;;;;;0.42;77.50;99169.66;6217649;23;20008;-83
2021/12/11 17:41:38;;;;;;;35.53;21.17;;;;;;;0.44;76.88;99172.94;6216011;23;19996;-83
2021/12/11 17:44:09;;;;;;;39.60;21.10;;;;;;;0.45;77.02;99171.97;6191481;23;20136;-83
2021/12/11 17:46:38;;;;;;;38.53;22.52;;;;;;;0.33;77.07;99150.53;6195575;23;20005;-83
2021/12/11 17:49:06;;;;;;;41.95;21.90;;;;;;;0.56;77.09;99182.88;6186952;23;20394;-83
2021/12/11 17:51:33;;;;;;;36.92;21.05;;;;;;;0.58;77.58;99180.88;6193107;23;20001;-83
2021/12/11 17:54:00;;;;;;;47.50;22.25;;;;;;;0.48;76.59;99171.63;6189143;23;20015;-83
2021/12/11 17:56:25;;;;;;;39.22;21.15;;;;;;;0.50;76.64;99175.66;6216892;23;20005;-83
2021/12/11 17:58:55;;;;;;;42.20;21.80;;;;;;;0.66;77.21;99201.81;6192407;23;20127;-82
2021/12/11 18:01:54;;;;;;;38.05;20.55;;;;;;;0.72;76.91;99184.53;6218884;23;20008;-83
2021/12/11 18:04:27;;;;;;;45.55;22.35;;;;;;;0.62;76.15;99173.44;6197571;23;20080;-83
2021/12/11 18:07:02;;;;;;;39.28;21.98;;;;;;;0.75;76.19;99205.19;6189067;23;20008;-83
2021/12/11 18:09:34;;;;;;;35.33;21.85;;;;;;;0.59;76.40;99173.81;6213058;23;20095;-83
2021/12/11 18:12:06;;;;;;;40.50;21.63;;;;;;;0.80;76.50;99220.41;6217177;23;20359;-83
2021/12/11 18:14:39;;;;;;;45.45;23.10;;;;;;;0.80;76.21;99226.50;6193113;23;20051;-83
2021/12/11 18:17:22;;;;;;;46.13;23.33;;;;;;;0.82;76.64;99226.31;6192431;23;20004;-82
2021/12/11 18:19:54;;;;;;;36.58;21.70;;;;;;;0.84;76.23;99222.53;6218117;23;20062;-82
2021/12/11 18:22:26;;;;;;;40.80;21.52;;;;;;;0.73;76.31;99212.44;6191509;23;20013;-82
2021/12/11 18:24:53;;;;;;;42.58;22.13;;;;;;;0.86;75.96;99223.16;6218766;23;20004;-82
2021/12/11 18:27:24;;;;;;;41.33;21.45;;;;;;;0.90;76.35;99218.34;6191617;23;20008;-82
2021/12/11 18:29:54;;;;;;;41.75;22.58;;;;;;;0.52;75.64;99155.34;6191109;23;20009;-82
2021/12/11 18:32:24;;;;;;;41.80;21.75;;;;;;;0.90;75.81;99219.19;6214136;23;20028;-82
2021/12/11 18:34:54;;;;;;;41.97;20.70;;;;;;;0.91;76.03;99220.00;6191190;23;20476;-83
2021/12/11 18:37:32;;;;;;;41.38;21.60;;;;;;;0.90;75.71;99210.47;6191077;23;20457;-83
2021/12/11 18:40:06;;;;;;;39.70;21.58;;;;;;;0.89;75.27;99216.72;6190368;23;20026;-83
2021/12/11 18:42:34;;;;;;;41.90;22.65;;;;;;;0.90;75.54;99226.22;6216601;23;20497;-82
2021/12/11 18:45:03;;;;;;;46.00;22.70;;;;;;;0.93;75.85;99215.38;6190507;23;20031;-83
2021/12/11 18:47:29;;;;;;;43.92;22.88;;;;;;;0.96;76.12;99221.09;6217310;23;20012;-82
2021/12/11 18:50:00;;;;;;;44.97;22.50;;;;;;;0.88;75.59;99208.03;6190583;23;20015;-83
2021/12/11 18:52:33;;;;;;;38.90;21.70;;;;;;;0.90;75.94;99213.91;6189224;23;20031;-82
2021/12/11 18:55:06;;;;;;;35.55;21.00;;;;;;;0.95;75.63;99219.47;6191309;23;20016;-83
2021/12/11 18:57:34;;;;;;;41.55;23.52;;;;;;;0.97;75.37;99235.88;6219010;23;20088;-83
2021/12/11 19:00:01;;;;;;;43.45;22.25;;;;;;;0.96;75.37;99228.97;6192048;23;20394;-83
2021/12/11 19:02:38;;;;;;;39.78;22.05;;;;;;;0.95;75.76;99232.59;6190947;23;20032;-83
2021/12/11 19:05:10;;;;;;;41.33;24.33;;;;;;;0.74;75.24;99212.25;6217308;23;20004;-83
2021/12/11 19:07:36;;;;;;;37.45;21.02;;;;;;;0.94;75.74;99233.59;6190262;23;20074;-82
2021/12/11 19:10:05;;;;;;;43.67;22.70;;;;;;;0.86;75.41;99219.72;6190435;23;20457;-83
2021/12/11 19:12:35;;;;;;;41.08;22.83;;;;;;;0.70;75.49;99202.25;6191846;23;20408;-84
2021/12/11 19:15:16;;;;;;;36.30;22.73;;;;;;;0.75;74.81;99211.25;6197556;23;20067;-84
2021/12/11 19:17:42;;;;;;;40.50;22.17;;;;;;;0.82;74.74;99213.19;6198249;23;20044;-84
2021/12/11 19:20:10;;;;;;;37.20;21.13;;;;;;;0.94;74.92;99245.94;6224965;23;20104;-84
2021/12/11 19:22:39;;;;;;;43.10;21.45;;;;;;;0.94;75.50;99249.34;6196399;23;20001;-83
2021/12/11 19:25:07;;;;;;;40.17;21.33;;;;;;;0.86;74.71;99238.91;6197428;23;20015;-83
2021/12/11 19:27:36;;;;;;;53.70;23.42;;;;;;;0.95;74.70;99258.88;6174399;23;20005;-83
2021/12/11 19:30:17;;;;;;;53.70;25.40;;;;;;;0.97;75.21;99261.31;6199287;23;20443;-84
2021/12/11 19:32:43;;;;;;;46.05;25.35;;;;;;;0.96;75.06;99259.72;6197907;23;20028;-83
2021/12/11 19:35:10;;;;;;;51.22;25.08;;;;;;;0.97;75.15;99262.16;6196859;23;20436;-83
2021/12/11 19:37:36;;;;;;;48.92;25.25;;;;;;;0.98;74.73;99265.59;6198901;23;20004;-83
2021/12/11 19:40:08;;;;;;;44.15;25.10;;;;;;;0.96;74.57;99257.88;6199261;23;20440;-84
2021/12/11 19:42:35;;;;;;;53.38;25.30;;;;;;;0.94;75.08;99264.31;6198158;23;19996;-83
2021/12/11 19:45:00;;;;;;;41.25;23.60;;;;;;;0.86;74.58;99244.16;6195674;23;20005;-83
2021/12/11 19:47:26;;;;;;;50.05;24.85;;;;;;;0.98;74.81;99262.97;6194253;23;20012;-84
2021/12/11 19:49:53;;;;;;;41.88;23.42;;;;;;;0.95;74.60;99274.66;6195145;23;20028;-82
2021/12/11 19:52:24;;;;;;;47.35;24.77;;;;;;;0.94;74.63;99267.75;6222905;23;20043;-83
2021/12/11 19:54:53;;;;;;;49.28;25.95;;;;;;;0.91;74.58;99270.75;6195847;23;20398;-84
2021/12/11 19:57:22;;;;;;;44.45;25.50;;;;;;;0.96;74.84;99286.78;6196407;23;20012;-83
2021/12/11 19:59:58;;;;;;;49.90;25.02;;;;;;;0.98;74.56;99278.75;6198153;23;20135;-84
2021/12/11 20:02:31;;;;;;;50.50;24.88;;;;;;;0.97;75.16;99283.16;6220341;23;20013;-83
2021/12/11 20:05:00;;;;;;;52.33;25.67;;;;;;;0.99;74.96;99286.44;6195905;23;20012;-82
2021/12/11 20:07:28;;;;;;;45.10;24.63;;;;;;;0.98;74.81;99291.88;6193956;23;20012;-84
2021/12/11 20:09:58;;;;;;;43.25;25.13;;;;;;;0.76;74.92;99259.38;6199554;23;20000;-82
2021/12/11 20:12:32;;;;;;;51.58;26.27;;;;;;;0.92;74.68;99282.06;6223977;23;20005;-83
2021/12/11 20:14:58;;;;;;;48.30;26.30;;;;;;;0.92;74.73;99289.97;6223814;23;20017;-83
2021/12/11 20:17:36;;;;;;;48.42;26.08;;;;;;;0.98;74.51;99305.03;6198674;23;20069;-82
2021/12/11 20:20:07;;;;;;;44.55;22.75;;;;;;;0.80;74.33;99286.09;6198374;23;20009;-84
2021/12/11 20:22:34;;;;;;;52.53;25.70;;;;;;;0.98;74.65;99320.78;6196457;23;20004;-84
2021/12/11 20:25:00;;;;;;;41.28;22.73;;;;;;;0.99;74.73;99311.88;6170629;23;20039;-84
2021/12/11 20:27:30;;;;;;;44.10;23.08;;;;;;;0.99;74.23;99317.97;6222861;23;20016;-84
2021/12/11 20:30:06;;;;;;;43.90;22.30;;;;;;;0.99;74.89;99314.53;6225138;23;20005;-83
2021/12/11 20:32:31;;;;;;;44.85;22.85;;;;;;;0.86;74.16;99301.16;6226258;23;20080;-83
2021/12/11 20:34:59;;;;;;;47.70;22.65;;;;;;;0.97;74.04;99309.44;6198888;23;20012;-83
2021/12/11 20:37:30;;;;;;;45.83;23.50;;;;;;;0.91;74.36;99301.44;6173794;23;20104;-84
2021/12/11 20:39:58;;;;;;;43.80;21.55;;;;;;;0.98;74.58;99326.03;6172750;23;20039;-83
2021/12/11 20:42:29;;;;;;;43.53;22.35;;;;;;;0.91;74.33;99312.78;6224821;23;20005;-83
2021/12/11 20:45:01;;;;;;;45.80;21.02;;;;;;;0.95;74.15;99324.56;6226729;23;20019;-83
2021/12/11 20:47:27;;;;;;;41.83;21.90;;;;;;;0.78;74.16;99299.41;6176740;23;20343;-83
2021/12/11 20:49:57;;;;;;;44.22;22.80;;;;;;;0.85;73.49;99316.13;6226207;23;20000;-83
2021/12/11 20:52:24;;;;;;;51.22;22.45;;;;;;;0.94;73.93;99335.28;6226769;23;20048;-83
2021/12/11 20:54:57;;;;;;;43.10;23.05;;;;;;;0.91;73.84;99338.25;6200775;23;20020;-83
2021/12/11 20:57:23;;;;;;;42.55;20.83;;;;;;;0.91;73.18;99340.88;6199759;23;20001;-83
2021/12/11 20:59:49;;;;;;;46.28;21.95;;;;;;;0.81;73.35;99337.66;6199851;23;20072;-83
2021/12/11 21:02:19;;;;;;;43.22;21.30;;;;;;;0.85;73.52;99352.06;6199889;23;20048;-83
2021/12/11 21:04:58;;;;;;;41.45;21.92;;;;;;;0.77;73.25;99345.06;6175099;23;20078;-83
2021/12/11 21:07:39;;;;;;;38.35;20.05;;;;;;;0.84;74.05;99353.88;6224987;23;20031;-82
2021/12/11 21:10:29;;;;;;;42.88;22.27;;;;;;;0.87;74.00;99363.22;6173582;23;20001;-83
2021/12/11 21:13:15;;;;;;;45.70;21.00;;;;;;;0.62;73.41;99331.84;6195697;23;20091;-83
2021/12/11 21:15:44;;;;;;;47.42;22.23;;;;;;;0.85;74.09;99373.09;6196512;23;20024;-83
2021/12/11 21:18:11;;;;;;;41.88;21.63;;;;;;;0.74;73.93;99355.94;6195820;23;20012;-83
2021/12/11 21:20:40;;;;;;;46.10;22.63;;;;;;;0.88;73.87;99383.25;6194793;23;20014;-84
2021/12/11 21:23:10;;;;;;;42.35;22.13;;;;;;;0.90;74.06;99376.81;6189420;23;20005;-83
2021/12/11 21:25:44;;;;;;;42.45;20.95;;;;;;;0.91;73.90;99381.09;6190980;23;20008;-83
2021/12/11 21:28:15;;;;;;;40.55;21.88;;;;;;;0.91;74.42;99383.72;6189136;23;20325;-83
2021/12/11 21:30:45;;;;;;;43.38;22.10;;;;;;;0.47;74.29;99324.88;6167191;23;20028;-83
2021/12/11 21:33:15;;;;;;;37.38;21.27;;;;;;;0.94;74.47;99391.25;6218577;23;20001;-83
2021/12/11 21:35:42;;;;;;;42.08;21.50;;;;;;;0.91;75.20;99378.47;6191942;23;20344;-83
2021/12/11 21:38:08;;;;;;;45.72;22.77;;;;;;;0.87;74.46;99379.81;6216718;23;20493;-83
2021/12/11 21:40:45;;;;;;;46.85;21.73;;;;;;;1.00;75.35;99405.50;6217177;23;20008;-83
2021/12/11 21:43:15;;;;;;;40.63;20.42;;;;;;;0.97;75.45;99406.69;6192335;23;20431;-83
2021/12/11 21:45:51;;;;;;;44.15;22.83;;;;;;;0.90;75.54;99387.34;6192152;23;20001;-83
2021/12/11 21:48:19;;;;;;;;;;;;;;;1.05;75.21;99411.88;6192268;23;20062;-83
2021/12/11 21:50:50;;;;;;;40.17;19.83;;;;;;;0.59;75.34;99349.78;6193646;23;19904;-83
2021/12/11 21:53:18;;;;;;;42.03;20.88;;;;;;;1.07;75.11;99419.59;6192067;23;20050;-83
2021/12/11 21:55:44;;;;;;;47.80;21.95;;;;;;;1.00;75.61;99406.34;6220148;23;20035;-83
2021/12/11 21:58:14;;;;;;;36.35;21.13;;;;;;;1.02;75.89;99401.72;6194762;23;20008;-84
2021/12/11 22:00:44;;;;;;;46.38;22.92;;;;;;;1.15;75.90;99423.00;6200539;23;20000;-84
2021/12/11 22:03:20;;;;;;;42.05;22.92;;;;;;;1.11;75.60;99413.00;6230419;23;20008;-83
2021/12/11 22:05:59;;;;;;;43.30;22.50;;;;;;;1.21;75.43;99431.97;6204656;23;20004;-84
2021/12/11 22:08:25;;;;;;;43.92;21.98;;;;;;;0.65;76.08;99328.06;6228497;23;20032;-84
2021/12/11 22:10:57;;;;;;;44.63;21.17;;;;;;;1.08;75.95;99401.03;6223760;23;20015;-84
2021/12/11 22:13:25;;;;;;;44.40;20.15;;;;;;;1.11;75.72;99403.31;6197698;23;20461;-83
2021/12/11 22:15:56;;;;;;;46.20;22.05;;;;;;;1.27;75.92;99424.22;6198651;23;20066;-83
2021/12/11 22:18:22;;;;;;;42.30;21.67;;;;;;;1.19;76.17;99408.50;6198015;23;20008;-83
2021/12/11 22:20:53;;;;;;;43.05;21.73;;;;;;;1.34;75.85;99438.31;6198128;23;20054;-83
2021/12/11 22:23:24;;;;;;;48.95;23.33;;;;;;;1.35;75.83;99437.34;6198486;23;19993;-83
2021/12/11 22:26:07;;;;;;;44.72;22.73;;;;;;;1.16;75.89;99414.09;6219057;23;20016;-83
2021/12/11 22:28:33;;;;;;;45.05;21.23;;;;;;;1.24;76.46;99427.22;6193117;23;20474;-83
2021/12/11 22:31:10;;;;;;;47.20;21.50;;;;;;;1.29;75.94;99418.81;6195491;23;20000;-83
2021/12/11 22:33:35;;;;;;;41.67;21.35;;;;;;;1.41;76.09;99446.31;6222541;23;20036;-84
2021/12/11 22:36:06;;;;;;;44.35;22.55;;;;;;;1.38;75.71;99444.84;6221600;23;20012;-82
2021/12/11 22:38:36;;;;;;;48.60;23.40;;;;;;;1.47;75.71;99456.94;6218748;23;20005;-86
2021/12/11 22:41:09;;;;;;;42.85;21.50;;;;;;;1.25;75.56;99426.22;6166487;23;20013;-83
2021/12/11 22:43:42;;;;;;;46.50;23.38;;;;;;;1.50;76.67;99459.25;6193113;23;20020;-84
2021/12/11 22:46:08;;;;;;;42.38;23.10;;;;;;;1.51;76.10;99455.59;6192722;23;20005;-83
2021/12/11 22:48:35;;;;;;;46.53;23.83;;;;;;;1.38;76.53;99438.75;6193992;23;20005;-83
2021/12/11 22:51:09;;;;;;;47.30;23.33;;;;;;;1.54;75.96;99462.34;6168108;23;20435;-83
2021/12/11 22:53:48;;;;;;;43.45;21.77;;;;;;;1.34;76.07;99437.47;6190977;23;20015;-83
2021/12/11 22:56:16;;;;;;;46.22;23.17;;;;;;;1.56;76.48;99468.22;6188782;23;20727;-83
2021/12/11 22:58:48;;;;;;;43.78;22.13;;;;;;;1.51;76.32;99463.50;6189996;23;20008;-83
2021/12/11 23:01:25;;;;;;;44.08;22.40;;;;;;;1.58;76.03;99460.97;6217383;23;20032;-84
2021/12/11 23:04:08;;;;;;;50.88;24.55;;;;;;;1.56;76.77;99457.72;6193460;23;20016;-84
2021/12/11 23:06:34;;;;;;;44.13;23.33;;;;;;;1.58;76.73;99447.00;6192510;23;20494;-83
2021/12/11 23:09:07;;;;;;;48.58;25.13;;;;;;;1.49;76.83;99433.09;6192193;23;20091;-83
2021/12/11 23:11:37;;;;;;;48.72;22.65;;;;;;;1.63;76.48;99455.19;6192158;23;20404;-84
2021/12/11 23:14:11;;;;;;;51.47;25.08;;;;;;;1.63;76.63;99453.38;6191733;23;20013;-83
2021/12/11 23:16:43;;;;;;;56.13;24.45;;;;;;;1.68;76.64;99463.38;6191332;23;20069;-83
2021/12/11 23:19:15;;;;;;;40.33;21.70;;;;;;;1.70;77.14;99469.28;6192001;23;20004;-83
2021/12/11 23:21:48;;;;;;;41.65;22.60;;;;;;;1.72;77.04;99462.84;6192230;23;20071;-83
2021/12/11 23:24:17;;;;;;;46.20;23.30;;;;;;;1.73;76.99;99450.50;6177445;23;20013;-84
2021/12/11 23:26:48;;;;;;;42.15;23.00;;;;;;;1.69;76.56;99451.84;6202855;23;20008;-83
2021/12/11 23:29:31;;;;;;;40.40;22.50;;;;;;;1.75;76.97;99459.06;6194317;23;20440;-84
2021/12/11 23:32:19;;;;;;;52.33;23.90;;;;;;;1.77;77.18;99451.81;6193590;23;20004;-83
2021/12/11 23:34:52;;;;;;;40.50;22.73;;;;;;;1.76;76.62;99435.19;6187636;23;20028;-83
2021/12/11 23:37:41;;;;;;;43.35;21.52;;;;;;;1.66;77.10;99426.72;6222605;23;20027;-82
2021/12/11 23:40:18;;;;;;;46.03;23.98;;;;;;;1.77;77.05;99431.53;6229542;23;20001;-82
2021/12/11 23:42:50;;;;;;;45.22;23.92;;;;;;;1.74;77.04;99434.56;6200990;23;20007;-82
2021/12/11 23:45:20;;;;;;;43.40;23.55;;;;;;;1.74;76.82;99442.44;6200900;23;20024;-82
2021/12/11 23:47:51;;;;;;;46.58;23.80;;;;;;;1.66;76.48;99431.19;6227968;23;20005;-82
2021/12/11 23:50:29;;;;;;;48.08;24.95;;;;;;;1.72;76.21;99452.34;6201227;23;20012;-82
2021/12/11 23:52:54;;;;;;;41.10;22.25;;;;;;;1.61;76.27;99438.78;6227133;23;20005;-82
2021/12/11 23:55:25;;;;;;;45.35;22.73;;;;;;;1.68;75.89;99445.78;6225439;23;20363;-81
2021/12/11 23:57:51;;;;;;;46.03;23.02;;;;;;;1.57;75.94;99429.59;6200885;23;20009;-82
